createdAt,value
2018-10-11T00:01:01.179Z,101557.18
2018-10-11T00:03:28.375Z,101559.19
2018-10-11T00:05:55.593Z,101558.83
2018-10-11T00:08:22.837Z,101560.12
2018-10-11T00:10:50.038Z,101557.02
2018-10-11T00:13:17.271Z,101544.79
2018-10-11T00:15:44.417Z,101548.83
2018-10-11T00:18:11.594Z,101545.41
2018-10-11T00:20:38.894Z,101548.14
2018-10-11T00:23:06.140Z,101552.41
2018-10-11T00:25:33.297Z,101551.76
2018-10-11T00:28:00.586Z,101545.63
2018-10-11T00:30:27.798Z,101551.58
2018-10-11T00:32:55.052Z,101549.39
2018-10-11T00:35:22.394Z,101544.52
2018-10-11T00:37:49.590Z,101548.25
2018-10-11T00:40:16.797Z,101543.12
2018-10-11T00:42:44.185Z,101550.80
2018-10-11T00:45:11.474Z,101542.88
2018-10-11T00:47:38.649Z,101542.03
2018-10-11T00:50:05.910Z,101544.55
2018-10-11T00:52:33.221Z,101538.53
2018-10-11T00:55:00.469Z,101525.58
2018-10-11T00:57:27.780Z,101522.39
2018-10-11T00:59:55.026Z,101521.27
2018-10-11T01:02:22.323Z,101520.94
2018-10-11T01:04:49.593Z,101527.09
2018-10-11T01:07:16.813Z,101522.39
2018-10-11T01:09:44.112Z,101517.42
2018-10-11T01:12:11.457Z,101517.48
2018-10-11T01:14:38.676Z,101511.86
2018-10-11T01:17:05.953Z,101512.94
2018-10-11T01:19:33.302Z,101510.27
2018-10-11T01:22:00.541Z,101507.59
2018-10-11T01:24:27.747Z,101509.58
2018-10-11T01:26:55.022Z,101512.56
2018-10-11T01:29:22.261Z,101505.97
2018-10-11T01:31:49.569Z,101508.23
2018-10-11T01:34:16.826Z,101505.82
2018-10-11T01:36:44.029Z,101507.79
2018-10-11T01:39:11.201Z,101513.96
2018-10-11T01:41:38.488Z,101512.64
2018-10-11T01:44:05.700Z,101511.37
2018-10-11T01:46:32.889Z,101515.05
2018-10-11T01:49:00.175Z,101509.28
2018-10-11T01:51:27.575Z,101506.84
2018-10-11T01:53:54.833Z,101503.78
2018-10-11T01:56:22.124Z,101507.74
2018-10-11T01:58:49.358Z,101502.95
2018-10-11T02:01:16.549Z,101501.24
2018-10-11T02:03:43.911Z,101500.41
2018-10-11T02:06:11.239Z,101496.62
2018-10-11T02:08:38.402Z,101499.89
2018-10-11T02:11:05.757Z,101495.71
2018-10-11T02:13:33.023Z,101494.55
2018-10-11T02:16:00.266Z,101493.83
2018-10-11T02:18:27.593Z,101495.71
2018-10-11T02:20:54.827Z,101485.38
2018-10-11T02:23:22.049Z,101477.55
2018-10-11T02:25:49.329Z,101481.62
2018-10-11T02:28:16.571Z,101476.91
2018-10-11T02:30:43.868Z,101472.19
2018-10-11T02:33:11.255Z,101476.11
2018-10-11T02:35:38.435Z,101468.24
2018-10-11T02:38:05.640Z,101468.52
2018-10-11T02:40:32.963Z,101468.09
2018-10-11T02:43:00.178Z,101468.44
2018-10-11T02:45:27.384Z,101468.91
2018-10-11T02:47:54.736Z,101473.29
2018-10-11T02:50:21.921Z,101466.36
2018-10-11T02:52:49.141Z,101465.52
2018-10-11T02:55:22.232Z,101465.47
2018-10-11T02:58:01.386Z,101461.02
2018-10-11T03:00:28.873Z,101464.61
2018-10-11T03:02:56.781Z,101460.98
2018-10-11T03:05:24.550Z,101459.76
2018-10-11T03:07:51.854Z,101454.42
2018-10-11T03:10:19.085Z,101463.30
2018-10-11T03:12:46.305Z,101462.44
2018-10-11T03:15:13.686Z,101457.62
2018-10-11T03:17:40.817Z,101454.09
2018-10-11T03:20:07.999Z,101451.55
2018-10-11T03:22:35.253Z,101452.88
2018-10-11T03:25:02.529Z,101459.18
2018-10-11T03:27:29.713Z,101449.09
2018-10-11T03:29:56.927Z,101447.53
2018-10-11T03:32:24.222Z,101448.06
2018-10-11T03:34:51.435Z,101449.39
2018-10-11T03:37:18.727Z,101448.52
2018-10-11T03:39:45.973Z,101438.47
2018-10-11T03:42:13.161Z,101441.63
2018-10-11T03:44:40.440Z,101444.69
2018-10-11T03:47:07.669Z,101444.28
2018-10-11T03:49:34.890Z,101440.81
2018-10-11T03:52:02.116Z,101439.07
2018-10-11T03:54:29.310Z,101439.98
2018-10-11T03:56:56.625Z,101438.22
2018-10-11T03:59:24.544Z,101436.98
2018-10-11T04:01:51.807Z,101439.17
2018-10-11T04:04:19.001Z,101436.55
2018-10-11T04:06:46.239Z,101434.80
2018-10-11T04:09:13.405Z,101436.20
2018-10-11T04:11:40.573Z,101432.27
2018-10-11T04:14:07.906Z,101428.85
2018-10-11T04:16:35.079Z,101424.03
2018-10-11T04:19:02.361Z,101422.63
2018-10-11T04:21:29.705Z,101417.28
2018-10-11T04:23:56.875Z,101418.56
2018-10-11T04:26:24.213Z,101418.08
2018-10-11T04:28:51.474Z,101412.77
2018-10-11T04:31:18.697Z,101412.22
2018-10-11T04:33:45.885Z,101413.56
2018-10-11T04:36:13.175Z,101413.11
2018-10-11T04:38:40.330Z,101410.48
2018-10-11T04:41:07.532Z,101401.23
2018-10-11T04:43:35.036Z,101403.82
2018-10-11T04:46:02.284Z,101402.44
2018-10-11T04:48:29.560Z,101393.22
2018-10-11T04:50:56.972Z,101397.56
2018-10-11T04:53:24.394Z,101397.11
2018-10-11T04:55:51.561Z,101397.52
2018-10-11T04:58:18.797Z,101396.97
2018-10-11T05:00:45.960Z,101396.94
2018-10-11T05:03:13.281Z,101397.86
2018-10-11T05:05:41.456Z,101397.38
2018-10-11T05:08:08.696Z,101402.64
2018-10-11T05:10:35.788Z,101398.70
2018-10-11T05:13:02.953Z,101398.30
2018-10-11T05:15:30.469Z,101397.50
2018-10-11T05:17:57.781Z,101400.50
2018-10-11T05:20:25.048Z,101401.80
2018-10-11T05:22:52.228Z,101395.77
2018-10-11T05:25:19.405Z,101404.42
2018-10-11T05:27:46.641Z,101397.06
2018-10-11T05:30:13.842Z,101398.84
2018-10-11T05:32:41.053Z,101405.08
2018-10-11T05:35:08.242Z,101405.51
2018-10-11T05:37:35.367Z,101398.55
2018-10-11T05:40:02.568Z,101395.87
2018-10-11T05:42:29.869Z,101392.35
2018-10-11T05:45:00.629Z,101387.91
2018-10-11T05:47:27.932Z,101387.98
2018-10-11T05:49:55.164Z,101384.95
2018-10-11T05:52:22.352Z,101383.16
2018-10-11T05:54:49.556Z,101382.72
2018-10-11T05:57:16.797Z,101383.47
2018-10-11T05:59:43.961Z,101392.49
2018-10-11T06:02:11.152Z,101399.13
2018-10-11T06:04:38.329Z,101400.06
2018-10-11T06:07:05.505Z,101398.31
2018-10-11T06:09:32.708Z,101406.59
2018-10-11T06:11:59.946Z,101405.70
2018-10-11T06:14:27.103Z,101404.14
2018-10-11T06:16:54.335Z,101404.67
2018-10-11T06:19:21.545Z,101392.23
2018-10-11T06:21:49.001Z,101388.42
2018-10-11T06:24:16.310Z,101391.66
2018-10-11T06:26:44.675Z,101388.78
2018-10-11T06:29:12.165Z,101395.80
2018-10-11T06:31:39.651Z,101393.20
2018-10-11T06:34:06.915Z,101398.19
2018-10-11T06:36:34.428Z,101396.67
2018-10-11T06:39:02.135Z,101392.78
2018-10-11T06:41:29.686Z,101396.94
2018-10-11T06:43:57.317Z,101403.16
2018-10-11T06:46:24.522Z,101410.78
2018-10-11T06:48:52.127Z,101403.91
2018-10-11T06:51:19.314Z,101402.50
2018-10-11T06:53:46.650Z,101404.08
2018-10-11T06:56:14.004Z,101410.28
2018-10-11T06:58:41.188Z,101407.48
2018-10-11T07:01:09.135Z,101402.68
2018-10-11T07:03:36.624Z,101407.17
2018-10-11T07:06:03.955Z,101407.23
2018-10-11T07:08:31.213Z,101416.92
2018-10-11T07:10:58.561Z,101423.63
2018-10-11T07:13:25.829Z,101421.92
2018-10-11T07:15:52.976Z,101424.98
2018-10-11T07:18:20.709Z,101428.83
2018-10-11T07:20:48.637Z,101426.02
2018-10-11T07:23:15.965Z,101432.16
2018-10-11T07:25:43.435Z,101428.21
2018-10-11T07:28:13.138Z,101421.60
2018-10-11T07:30:41.309Z,101427.34
2018-10-11T07:33:08.946Z,101425.98
2018-10-11T07:35:36.478Z,101426.77
2018-10-11T07:38:03.867Z,101427.78
2018-10-11T07:40:31.265Z,101421.13
2018-10-11T07:42:58.529Z,101418.73
2018-10-11T07:45:25.730Z,101419.89
2018-10-11T07:47:53.233Z,101418.77
2018-10-11T07:50:20.493Z,101416.48
2018-10-11T07:52:47.893Z,101412.24
2018-10-11T07:55:15.197Z,101419.62
2018-10-11T07:57:42.622Z,101420.07
2018-10-11T08:00:11.580Z,101427.20
2018-10-11T08:02:39.834Z,101407.98
2018-10-11T08:05:07.298Z,101410.00
2018-10-11T08:07:36.679Z,101405.91
2018-10-11T08:10:04.051Z,101405.25
2018-10-11T08:12:31.273Z,101397.55
2018-10-11T08:14:58.436Z,101402.33
2018-10-11T08:17:25.942Z,101395.92
2018-10-11T08:19:52.980Z,101393.27
2018-10-11T08:22:20.085Z,101392.00
2018-10-11T08:24:47.335Z,101384.54
2018-10-11T08:27:14.616Z,101405.95
2018-10-11T08:29:41.786Z,101407.34
2018-10-11T08:32:09.021Z,101392.28
2018-10-11T08:34:36.181Z,101395.80
2018-10-11T08:37:03.360Z,101402.28
2018-10-11T08:39:30.886Z,101407.05
2018-10-11T08:42:00.490Z,101403.35
2018-10-11T08:44:27.651Z,101402.34
2018-10-11T08:46:54.893Z,101406.87
2018-10-11T08:49:22.027Z,101398.72
2018-10-11T08:51:49.215Z,101405.04
2018-10-11T08:54:24.090Z,101402.02
2018-10-11T08:56:51.320Z,101396.46
2018-10-11T08:59:18.543Z,101401.71
2018-10-11T09:01:46.238Z,101398.36
2018-10-11T09:04:13.652Z,101397.16
2018-10-11T09:06:41.010Z,101394.58
2018-10-11T09:09:09.992Z,101405.18
2018-10-11T09:11:37.289Z,101399.77
2018-10-11T09:14:04.445Z,101397.77
2018-10-11T09:16:31.756Z,101393.47
2018-10-11T09:18:59.102Z,101396.73
2018-10-11T09:21:26.319Z,101398.16
2018-10-11T09:23:53.740Z,101398.02
2018-10-11T09:26:21.058Z,101411.62
2018-10-11T09:28:48.633Z,101406.91
2018-10-11T09:31:16.966Z,101403.03
2018-10-11T09:33:44.451Z,101408.07
2018-10-11T09:36:12.108Z,101413.50
2018-10-11T09:38:39.341Z,101416.16
2018-10-11T09:41:06.600Z,101418.03
2018-10-11T09:43:33.764Z,101418.42
2018-10-11T09:46:01.053Z,101413.09
2018-10-11T09:48:28.233Z,101414.30
2018-10-11T09:50:55.506Z,101403.09
2018-10-11T09:53:22.989Z,101405.11
2018-10-11T09:55:50.256Z,101408.72
2018-10-11T09:58:17.864Z,101402.39
2018-10-11T10:00:50.837Z,101400.13
2018-10-11T10:03:18.164Z,101399.84
2018-10-11T10:05:45.402Z,101402.67
2018-10-11T10:08:12.873Z,101390.12
2018-10-11T10:10:40.618Z,101401.44
2018-10-11T10:13:07.844Z,101399.64
2018-10-11T10:15:35.314Z,101396.09
2018-10-11T10:18:02.545Z,101398.48
2018-10-11T10:20:30.513Z,101399.08
2018-10-11T10:22:57.790Z,101401.84
2018-10-11T10:25:25.044Z,101389.78
2018-10-11T10:27:52.262Z,101398.34
2018-10-11T10:30:25.182Z,101397.60
2018-10-11T10:32:52.354Z,101393.02
2018-10-11T10:35:19.529Z,101394.08
2018-10-11T10:37:46.757Z,101392.92
2018-10-11T10:40:14.199Z,101386.40
2018-10-11T10:42:41.576Z,101377.52
2018-10-11T10:45:10.232Z,101372.81
2018-10-11T10:47:37.537Z,101367.25
2018-10-11T10:50:04.825Z,101358.27
2018-10-11T10:52:32.047Z,101356.95
2018-10-11T10:54:59.215Z,101356.21
2018-10-11T10:57:26.657Z,101350.53
2018-10-11T10:59:54.013Z,101360.41
2018-10-11T11:02:21.269Z,101355.61
2018-10-11T11:04:48.490Z,101352.61
2018-10-11T11:07:16.001Z,101353.95
2018-10-11T11:09:43.125Z,101352.06
2018-10-11T11:12:10.408Z,101352.07
2018-10-11T11:14:37.796Z,101342.63
2018-10-11T11:17:05.095Z,101324.21
2018-10-11T11:19:32.394Z,101325.67
2018-10-11T11:21:59.739Z,101319.07
2018-10-11T11:24:27.093Z,101317.02
2018-10-11T11:26:54.403Z,101314.43
2018-10-11T11:29:21.746Z,101308.95
2018-10-11T11:31:48.970Z,101303.48
2018-10-11T11:34:16.164Z,101300.14
2018-10-11T11:36:43.640Z,101299.39
2018-10-11T11:39:11.764Z,101300.55
2018-10-11T11:41:39.098Z,101299.77
2018-10-11T11:44:06.897Z,101299.21
2018-10-11T11:46:35.046Z,101295.09
2018-10-11T11:49:02.218Z,101294.87
2018-10-11T11:51:29.532Z,101296.59
2018-10-11T11:56:42.033Z,101301.70
2018-10-11T11:59:09.387Z,101298.73
2018-10-11T12:01:36.595Z,101301.55
2018-10-11T12:04:04.887Z,101293.80
2018-10-11T12:06:32.092Z,101285.98
2018-10-11T12:08:59.238Z,101292.20
2018-10-11T12:11:26.471Z,101286.80
2018-10-11T12:13:53.678Z,101285.75
2018-10-11T12:16:21.288Z,101298.31
2018-10-11T12:18:48.536Z,101300.03
2018-10-11T12:21:15.746Z,101297.11
2018-10-11T12:23:48.351Z,101295.05
2018-10-11T12:26:20.875Z,101293.19
2018-10-11T12:28:48.317Z,101301.11
2018-10-11T12:31:15.513Z,101290.52
2018-10-11T12:33:42.726Z,101289.22
2018-10-11T12:36:09.882Z,101292.70
2018-10-11T12:38:37.063Z,101291.70
2018-10-11T12:41:04.266Z,101299.13
2018-10-11T12:43:31.430Z,101295.96
2018-10-11T12:45:58.601Z,101285.94
2018-10-11T12:48:25.838Z,101289.47
2018-10-11T12:50:52.997Z,101285.32
2018-10-11T12:53:20.161Z,101280.83
2018-10-11T12:55:47.422Z,101277.16
2018-10-11T12:58:15.954Z,101273.50
2018-10-11T13:00:43.158Z,101273.35
2018-10-11T13:03:10.409Z,101267.40
2018-10-11T13:05:37.591Z,101252.62
2018-10-11T13:08:04.747Z,101251.66
2018-10-11T13:10:31.983Z,101251.17
2018-10-11T13:13:07.029Z,101252.08
2018-10-11T13:15:26.655Z,101250.63
2018-10-11T13:17:53.911Z,101244.41
2018-10-11T13:20:21.159Z,101245.67
2018-10-11T13:22:50.488Z,101245.33
2018-10-11T13:25:17.735Z,101249.98
2018-10-11T13:27:45.033Z,101250.33
2018-10-11T13:30:12.227Z,101240.48
2018-10-11T13:32:39.564Z,101237.61
2018-10-11T13:35:07.194Z,101240.69
2018-10-11T13:37:34.366Z,101237.61
2018-10-11T13:40:01.597Z,101241.02
2018-10-11T13:42:28.768Z,101238.95
2018-10-11T13:44:55.973Z,101243.55
2018-10-11T13:47:23.618Z,101241.13
2018-10-11T13:49:50.781Z,101236.72
2018-10-11T13:52:21.683Z,101235.24
2018-10-11T13:54:45.528Z,101235.00
2018-10-11T13:57:12.877Z,101228.00
2018-10-11T13:59:40.058Z,101235.72
2018-10-11T14:02:07.306Z,101238.48
2018-10-11T14:04:34.554Z,101236.00
2018-10-11T14:07:01.704Z,101231.69
2018-10-11T14:09:28.910Z,101231.42
2018-10-11T14:11:56.090Z,101229.17
2018-10-11T14:14:23.304Z,101227.35
2018-10-11T14:16:52.580Z,101223.11
2018-10-11T14:19:19.768Z,101226.66
2018-10-11T14:21:47.357Z,101215.16
2018-10-11T14:24:14.638Z,101218.33
2018-10-11T14:26:41.867Z,101222.08
2018-10-11T14:29:09.117Z,101225.35
2018-10-11T14:31:36.390Z,101224.66
2018-10-11T14:34:03.741Z,101232.34
2018-10-11T14:36:30.953Z,101226.66
2018-10-11T14:38:58.308Z,101223.97
2018-10-11T14:41:25.504Z,101215.59
2018-10-11T14:43:52.709Z,101214.62
2018-10-11T14:46:19.917Z,101211.84
2018-10-11T14:48:47.091Z,101215.08
2018-10-11T14:51:14.444Z,101215.11
2018-10-11T14:53:41.637Z,101206.30
2018-10-11T14:56:09.045Z,101205.30
2018-10-11T14:58:57.274Z,101203.81
2018-10-11T15:01:24.541Z,101195.72
2018-10-11T15:03:52.435Z,101198.36
2018-10-11T15:06:19.609Z,101201.31
2018-10-11T15:08:46.777Z,101206.86
2018-10-11T15:11:16.223Z,101210.08
2018-10-11T15:13:49.120Z,101212.48
2018-10-11T15:16:34.012Z,101213.24
2018-10-11T15:19:01.153Z,101211.91
2018-10-11T15:21:41.197Z,101209.86
2018-10-11T15:24:08.673Z,101213.45
2018-10-11T15:26:36.515Z,101219.34
2018-10-11T15:29:04.180Z,101217.66
2018-10-11T15:31:32.873Z,101219.19
2018-10-11T15:34:25.995Z,101218.77
2018-10-11T15:36:54.657Z,101218.23
2018-10-11T15:39:26.139Z,101219.23
2018-10-11T15:41:53.482Z,101222.67
2018-10-11T15:44:20.695Z,101220.83
2018-10-11T15:46:47.982Z,101220.95
2018-10-11T15:49:15.158Z,101221.20
2018-10-11T15:51:43.026Z,101222.38
2018-10-11T15:54:10.495Z,101221.91
2018-10-11T15:56:37.836Z,101223.17
2018-10-11T15:59:05.069Z,101225.99
2018-10-11T16:01:32.706Z,101216.97
2018-10-11T16:03:59.886Z,101221.77
2018-10-11T16:06:27.166Z,101219.84
2018-10-11T16:08:54.563Z,101224.80
2018-10-11T16:11:21.704Z,101226.61
2018-10-11T16:13:48.913Z,101224.22
2018-10-11T16:16:16.168Z,101223.91
2018-10-11T16:18:44.440Z,101227.48
2018-10-11T16:21:11.958Z,101224.98
2018-10-11T16:23:39.168Z,101233.86
2018-10-11T16:26:06.326Z,101245.52
2018-10-11T16:28:33.493Z,101248.84
2018-10-11T16:31:00.702Z,101244.20
2018-10-11T16:33:27.961Z,101248.20
2018-10-11T16:35:55.359Z,101247.27
2018-10-11T16:38:22.532Z,101247.92
2018-10-11T16:40:49.781Z,101244.59
2018-10-11T16:43:17.046Z,101242.51
2018-10-11T16:45:44.322Z,101250.22
2018-10-11T16:48:11.481Z,101254.23
2018-10-11T16:50:38.637Z,101256.70
2018-10-11T16:53:05.967Z,101261.06
2018-10-11T16:55:33.131Z,101262.23
2018-10-11T16:58:00.335Z,101264.48
2018-10-11T17:00:27.494Z,101263.17
2018-10-11T17:02:54.733Z,101262.29
2018-10-11T17:05:21.880Z,101265.25
2018-10-11T17:07:51.157Z,101264.13
2018-10-11T17:10:18.298Z,101266.16
2018-10-11T17:12:45.428Z,101262.69
2018-10-11T17:15:12.630Z,101266.97
2018-10-11T17:17:39.970Z,101266.67
2018-10-11T17:20:07.138Z,101272.62
2018-10-11T17:22:34.366Z,101265.82
2018-10-11T17:25:01.672Z,101261.64
2018-10-11T17:27:28.956Z,101259.73
2018-10-11T17:29:56.157Z,101267.41
2018-10-11T17:32:23.418Z,101270.58
2018-10-11T17:34:50.743Z,101272.92
2018-10-11T17:37:18.066Z,101269.17
2018-10-11T17:39:45.229Z,101272.05
2018-10-11T17:42:12.464Z,101267.81
2018-10-11T17:44:39.632Z,101267.53
2018-10-11T17:47:07.012Z,101268.05
2018-10-11T17:49:34.341Z,101269.30
2018-10-11T17:52:01.605Z,101265.44
2018-10-11T17:54:28.761Z,101261.66
2018-10-11T17:56:55.928Z,101260.28
2018-10-11T17:59:23.114Z,101269.61
2018-10-11T18:01:50.300Z,101271.08
2018-10-11T18:04:17.492Z,101270.66
2018-10-11T18:06:44.788Z,101262.52
2018-10-11T18:09:12.071Z,101260.59
2018-10-11T18:11:39.364Z,101268.72
2018-10-11T18:14:07.180Z,101268.50
2018-10-11T18:16:34.313Z,101263.77
2018-10-11T18:19:01.480Z,101262.59
2018-10-11T18:21:28.906Z,101269.59
2018-10-11T18:23:56.167Z,101259.90
2018-10-11T18:26:23.485Z,101256.47
2018-10-11T18:28:50.734Z,101254.75
2018-10-11T18:31:17.977Z,101259.28
2018-10-11T18:33:45.247Z,101254.47
2018-10-11T18:36:12.546Z,101260.78
2018-10-11T18:38:39.828Z,101261.88
2018-10-11T18:41:07.090Z,101267.90
2018-10-11T18:43:34.310Z,101274.20
2018-10-11T18:46:01.690Z,101274.47
2018-10-11T18:48:28.974Z,101277.41
2018-10-11T18:50:56.361Z,101284.75
2018-10-11T18:53:23.604Z,101279.25
2018-10-11T18:55:50.785Z,101273.79
2018-10-11T18:58:18.133Z,101275.86
2018-10-11T19:00:45.469Z,101270.39
2018-10-11T19:03:14.552Z,101277.51
2018-10-11T19:05:41.841Z,101284.60
2018-10-11T19:08:09.096Z,101274.25
2018-10-11T19:10:40.627Z,101274.69
2018-10-11T19:13:08.094Z,101277.98
2018-10-11T19:15:35.348Z,101283.45
2018-10-11T19:18:02.550Z,101284.33
2018-10-11T19:20:29.813Z,101288.61
2018-10-11T19:22:57.026Z,101283.52
2018-10-11T19:25:24.267Z,101288.38
2018-10-11T19:27:52.116Z,101289.40
2018-10-11T19:30:19.379Z,101289.11
2018-10-11T19:32:46.583Z,101290.12
2018-10-11T19:35:13.876Z,101295.90
2018-10-11T19:37:41.106Z,101299.77
2018-10-11T19:40:08.586Z,101308.37
2018-10-11T19:42:35.821Z,101310.12
2018-10-11T19:45:03.147Z,101312.86
2018-10-11T19:47:30.376Z,101311.69
2018-10-11T19:49:57.657Z,101311.25
2018-10-11T19:52:24.834Z,101310.70
2018-10-11T19:54:52.091Z,101309.16
2018-10-11T19:57:19.366Z,101317.44
2018-10-11T19:59:46.564Z,101322.05
2018-10-11T20:02:13.812Z,101326.84
2018-10-11T20:04:41.144Z,101324.39
2018-10-11T20:07:08.386Z,101325.41
2018-10-11T20:09:35.892Z,101329.48
2018-10-11T20:12:03.284Z,101329.63
2018-10-11T20:14:32.608Z,101329.88
2018-10-11T20:16:59.821Z,101331.33
2018-10-11T20:19:27.122Z,101334.45
2018-10-11T20:21:54.358Z,101328.88
2018-10-11T20:24:22.336Z,101334.36
2018-10-11T20:26:49.601Z,101340.20
2018-10-11T20:29:16.848Z,101347.59
2018-10-11T20:31:44.010Z,101346.89
2018-10-11T20:34:11.220Z,101344.03
2018-10-11T20:36:38.373Z,101346.33
2018-10-11T20:39:08.525Z,101349.39
2018-10-11T20:41:35.877Z,101351.58
2018-10-11T20:44:03.896Z,101351.52
2018-10-11T20:46:31.129Z,101351.63
2018-10-11T20:48:58.350Z,101345.20
2018-10-11T20:51:25.557Z,101349.47
2018-10-11T20:53:59.649Z,101353.53
2018-10-11T20:56:26.950Z,101365.82
2018-10-11T20:58:54.125Z,101359.97
2018-10-11T21:01:21.310Z,101366.88
2018-10-11T21:03:48.469Z,101365.78
2018-10-11T21:06:15.670Z,101367.78
2018-10-11T21:08:42.887Z,101371.96
2018-10-11T21:11:10.062Z,101369.08
2018-10-11T21:13:37.237Z,101373.59
2018-10-11T21:16:04.510Z,101373.65
2018-10-11T21:18:33.674Z,101380.31
2018-10-11T21:21:00.841Z,101379.59
2018-10-11T21:23:28.070Z,101378.84
2018-10-11T21:25:55.233Z,101378.48
2018-10-11T21:28:22.451Z,101382.07
2018-10-11T21:30:49.624Z,101374.97
2018-10-11T21:33:16.805Z,101377.19
2018-10-11T21:35:43.982Z,101382.07
2018-10-11T21:38:11.176Z,101384.02
2018-10-11T21:40:38.370Z,101382.81
2018-10-11T21:43:05.718Z,101386.09
2018-10-11T21:45:32.956Z,101379.68
2018-10-11T21:48:00.120Z,101379.00
2018-10-11T21:50:27.278Z,101375.41
2018-10-11T21:52:54.577Z,101376.09
2018-10-11T21:55:22.784Z,101375.58
2018-10-11T21:57:50.059Z,101369.80
2018-10-11T22:00:17.361Z,101375.95
2018-10-11T22:02:44.575Z,101379.09
2018-10-11T22:05:11.755Z,101386.31
2018-10-11T22:07:39.058Z,101386.63
2018-10-11T22:10:06.289Z,101387.99
2018-10-11T22:12:33.501Z,101390.83
2018-10-11T22:15:00.863Z,101384.66
2018-10-11T22:17:27.909Z,101383.23
2018-10-11T22:19:55.091Z,101382.70
2018-10-11T22:22:22.360Z,101383.70
2018-10-11T22:24:49.526Z,101386.61
2018-10-11T22:27:16.794Z,101387.81
2018-10-11T22:29:44.004Z,101397.06
2018-10-11T22:32:11.204Z,101396.39
2018-10-11T22:34:38.368Z,101391.95
2018-10-11T22:37:05.725Z,101387.58
2018-10-11T22:39:32.924Z,101390.27
2018-10-11T22:42:00.081Z,101385.34
2018-10-11T22:44:27.381Z,101384.47
2018-10-11T22:46:54.561Z,101390.68
2018-10-11T22:49:21.718Z,101391.28
2018-10-11T22:51:48.936Z,101390.95
2018-10-11T22:54:16.141Z,101386.63
2018-10-11T22:56:45.196Z,101390.15
2018-10-11T22:59:12.901Z,101389.89
2018-10-11T23:01:40.487Z,101383.34
2018-10-11T23:04:07.700Z,101387.63
2018-10-11T23:06:35.016Z,101385.45
2018-10-11T23:09:02.210Z,101392.90
2018-10-11T23:11:29.409Z,101391.54
2018-10-11T23:13:56.686Z,101387.61
2018-10-11T23:16:23.837Z,101389.63
2018-10-11T23:18:51.837Z,101384.02
2018-10-11T23:21:19.049Z,101381.33
2018-10-11T23:23:46.201Z,101383.06
2018-10-11T23:26:13.397Z,101384.77
2018-10-11T23:28:40.861Z,101384.57
2018-10-11T23:31:08.344Z,101388.23
2018-10-11T23:33:35.500Z,101393.95
2018-10-11T23:36:02.727Z,101395.42
2018-10-11T23:38:29.872Z,101403.84
2018-10-11T23:40:57.061Z,101405.67
2018-10-11T23:43:24.360Z,101404.30
2018-10-11T23:45:51.560Z,101399.80
2018-10-11T23:48:18.755Z,101404.45
2018-10-11T23:50:45.960Z,101401.02
2018-10-11T23:53:13.157Z,101405.28
2018-10-11T23:55:40.309Z,101401.34
2018-10-11T23:58:07.517Z,101404.31
